<?xml version="1.0" encoding="UTF-8" standalone="no" ?>
<gpx xmlns="http://www.topografix.com/GPX/1/1" xmlns:xsi="http://www.w3.org/2001/XMLSchema-instance" xsi:schemaLocation="http://www.topografix.com/GPX/1/1 http://www.topografix.com/GPX/1/1/gpx.xsd" version="1.1" creator="VisuGPX - https://www.visugpx.com">
  <metadata>
    <name>VacancesDricouZoe</name>
  </metadata>
  <trk>
    <name><![CDATA[Journal actif: 2021-07-06 11:50]]></name>
    <trkseg>
      <trkpt lat="43.46644" lon="-1.57167">
        <ele>12.63</ele>
        <time>2021-07-06T13:50:54Z</time>
      </trkpt>
      <trkpt lat="43.46643" lon="-1.57168">
        <ele>12.63</ele>
        <time>2021-07-06T13:51:15Z</time>
      </trkpt>
      <trkpt lat="43.46628" lon="-1.57174">
        <ele>12.63</ele>
        <time>2021-07-06T13:51:24Z</time>
      </trkpt>
      <trkpt lat="43.46581" lon="-1.57168">
        <ele>12.15</ele>
        <time>2021-07-06T13:51:47Z</time>
      </trkpt>
      <trkpt lat="43.46569" lon="-1.57167">
        <ele>12.15</ele>
        <time>2021-07-06T13:52:03Z</time>
      </trkpt>
      <trkpt lat="43.46561" lon="-1.57167">
        <ele>11.67</ele>
        <time>2021-07-06T13:52:19Z</time>
      </trkpt>
      <trkpt lat="43.46539" lon="-1.57167">
        <ele>12.15</ele>
        <time>2021-07-06T13:52:32Z</time>
      </trkpt>
      <trkpt lat="43.46535" lon="-1.57167">
        <ele>12.15</ele>
        <time>2021-07-06T13:52:44Z</time>
      </trkpt>
      <trkpt lat="43.46535" lon="-1.57167">
        <ele>12.15</ele>
        <time>2021-07-06T13:52:53Z</time>
      </trkpt>
      <trkpt lat="43.46535" lon="-1.57167">
        <ele>12.15</ele>
        <time>2021-07-06T13:52:54Z</time>
      </trkpt>
      <trkpt lat="43.46528" lon="-1.57171">
        <ele>12.15</ele>
        <time>2021-07-06T13:52:55Z</time>
      </trkpt>
      <trkpt lat="43.46528" lon="-1.57171">
        <ele>12.15</ele>
        <time>2021-07-06T13:52:56Z</time>
      </trkpt>
      <trkpt lat="43.46528" lon="-1.57173">
        <ele>12.15</ele>
        <time>2021-07-06T13:52:57Z</time>
      </trkpt>
      <trkpt lat="43.46528" lon="-1.57176">
        <ele>12.15</ele>
        <time>2021-07-06T13:52:58Z</time>
      </trkpt>
      <trkpt lat="43.46528" lon="-1.57171">
        <ele>12.15</ele>
        <time>2021-07-06T13:52:59Z</time>
      </trkpt>
      <trkpt lat="43.46528" lon="-1.57171">
        <ele>11.67</ele>
        <time>2021-07-06T13:53:00Z</time>
      </trkpt>
      <trkpt lat="43.46536" lon="-1.57189">
        <ele>11.67</ele>
        <time>2021-07-06T13:53:01Z</time>
      </trkpt>
      <trkpt lat="43.46577" lon="-1.57214">
        <ele>9.75</ele>
        <time>2021-07-06T13:53:11Z</time>
      </trkpt>
      <trkpt lat="43.46582" lon="-1.57216">
        <ele>9.75</ele>
        <time>2021-07-06T13:53:12Z</time>
      </trkpt>
      <trkpt lat="43.46651" lon="-1.57209">
        <ele>9.75</ele>
        <time>2021-07-06T13:53:25Z</time>
      </trkpt>
      <trkpt lat="43.46696" lon="-1.57161">
        <ele>11.19</ele>
        <time>2021-07-06T13:53:34Z</time>
      </trkpt>
      <trkpt lat="43.467" lon="-1.57154">
        <ele>11.19</ele>
        <time>2021-07-06T13:53:35Z</time>
      </trkpt>
      <trkpt lat="43.46702" lon="-1.57146">
        <ele>11.67</ele>
        <time>2021-07-06T13:53:36Z</time>
      </trkpt>
      <trkpt lat="43.46702" lon="-1.57146">
        <ele>11.67</ele>
        <time>2021-07-06T13:53:37Z</time>
      </trkpt>
      <trkpt lat="43.46702" lon="-1.57139">
        <ele>12.15</ele>
        <time>2021-07-06T13:53:38Z</time>
      </trkpt>
      <trkpt lat="43.46704" lon="-1.57123">
        <ele>12.63</ele>
        <time>2021-07-06T13:53:39Z</time>
      </trkpt>
      <trkpt lat="43.46728" lon="-1.5703">
        <ele>16</ele>
        <time>2021-07-06T13:53:52Z</time>
      </trkpt>
      <trkpt lat="43.46728" lon="-1.5703">
        <ele>16.48</ele>
        <time>2021-07-06T13:53:53Z</time>
      </trkpt>
      <trkpt lat="43.46732" lon="-1.57023">
        <ele>16.48</ele>
        <time>2021-07-06T13:53:54Z</time>
      </trkpt>
      <trkpt lat="43.46736" lon="-1.57017">
        <ele>16.48</ele>
        <time>2021-07-06T13:53:55Z</time>
      </trkpt>
      <trkpt lat="43.4674" lon="-1.57011">
        <ele>16.48</ele>
        <time>2021-07-06T13:53:56Z</time>
      </trkpt>
      <trkpt lat="43.46808" lon="-1.56929">
        <ele>19.36</ele>
        <time>2021-07-06T13:54:09Z</time>
      </trkpt>
      <trkpt lat="43.46925" lon="-1.56819">
        <ele>21.77</ele>
        <time>2021-07-06T13:54:26Z</time>
      </trkpt>
      <trkpt lat="43.47061" lon="-1.56722">
        <ele>25.61</ele>
        <time>2021-07-06T13:54:44Z</time>
      </trkpt>
      <trkpt lat="43.47163" lon="-1.56668">
        <ele>31.38</ele>
        <time>2021-07-06T13:54:55Z</time>
      </trkpt>
      <trkpt lat="43.47253" lon="-1.56659">
        <ele>36.19</ele>
        <time>2021-07-06T13:55:07Z</time>
      </trkpt>
      <trkpt lat="43.47288" lon="-1.56653">
        <ele>37.15</ele>
        <time>2021-07-06T13:55:12Z</time>
      </trkpt>
      <trkpt lat="43.47292" lon="-1.56652">
        <ele>37.63</ele>
        <time>2021-07-06T13:55:13Z</time>
      </trkpt>
      <trkpt lat="43.47296" lon="-1.56649">
        <ele>37.63</ele>
        <time>2021-07-06T13:55:14Z</time>
      </trkpt>
      <trkpt lat="43.47301" lon="-1.56646">
        <ele>38.11</ele>
        <time>2021-07-06T13:55:15Z</time>
      </trkpt>
      <trkpt lat="43.47305" lon="-1.56643">
        <ele>37.63</ele>
        <time>2021-07-06T13:55:16Z</time>
      </trkpt>
      <trkpt lat="43.47308" lon="-1.56637">
        <ele>37.63</ele>
        <time>2021-07-06T13:55:17Z</time>
      </trkpt>
      <trkpt lat="43.47311" lon="-1.56633">
        <ele>37.63</ele>
        <time>2021-07-06T13:55:18Z</time>
      </trkpt>
      <trkpt lat="43.47312" lon="-1.5663">
        <ele>37.63</ele>
        <time>2021-07-06T13:55:19Z</time>
      </trkpt>
      <trkpt lat="43.47315" lon="-1.56625">
        <ele>37.63</ele>
        <time>2021-07-06T13:55:20Z</time>
      </trkpt>
      <trkpt lat="43.47337" lon="-1.56589">
        <ele>35.23</ele>
        <time>2021-07-06T13:55:32Z</time>
      </trkpt>
      <trkpt lat="43.47344" lon="-1.56579">
        <ele>34.74</ele>
        <time>2021-07-06T13:55:42Z</time>
      </trkpt>
      <trkpt lat="43.47364" lon="-1.56549">
        <ele>33.78</ele>
        <time>2021-07-06T13:55:49Z</time>
      </trkpt>
      <trkpt lat="43.47364" lon="-1.56549">
        <ele>33.3</ele>
        <time>2021-07-06T13:55:50Z</time>
      </trkpt>
      <trkpt lat="43.47357" lon="-1.56554">
        <ele>33.3</ele>
        <time>2021-07-06T13:55:51Z</time>
      </trkpt>
      <trkpt lat="43.47355" lon="-1.56551">
        <ele>33.3</ele>
        <time>2021-07-06T13:55:52Z</time>
      </trkpt>
      <trkpt lat="43.47354" lon="-1.56549">
        <ele>32.82</ele>
        <time>2021-07-06T13:55:53Z</time>
      </trkpt>
      <trkpt lat="43.47353" lon="-1.56547">
        <ele>32.82</ele>
        <time>2021-07-06T13:55:54Z</time>
      </trkpt>
      <trkpt lat="43.47353" lon="-1.56547">
        <ele>32.82</ele>
        <time>2021-07-06T13:55:55Z</time>
      </trkpt>
      <trkpt lat="43.47351" lon="-1.56544">
        <ele>32.34</ele>
        <time>2021-07-06T13:55:56Z</time>
      </trkpt>
      <trkpt lat="43.47311" lon="-1.56473">
        <ele>29.94</ele>
        <time>2021-07-06T13:56:10Z</time>
      </trkpt>
      <trkpt lat="43.47294" lon="-1.56443">
        <ele>28.5</ele>
        <time>2021-07-06T13:56:18Z</time>
      </trkpt>
      <trkpt lat="43.47268" lon="-1.56386">
        <ele>25.13</ele>
        <time>2021-07-06T13:56:29Z</time>
      </trkpt>
      <trkpt lat="43.47261" lon="-1.5637">
        <ele>25.61</ele>
        <time>2021-07-06T13:56:34Z</time>
      </trkpt>
      <trkpt lat="43.47235" lon="-1.56316">
        <ele>32.34</ele>
        <time>2021-07-06T13:56:45Z</time>
      </trkpt>
      <trkpt lat="43.47234" lon="-1.56315">
        <ele>32.82</ele>
        <time>2021-07-06T13:56:46Z</time>
      </trkpt>
      <trkpt lat="43.47226" lon="-1.56319">
        <ele>33.3</ele>
        <time>2021-07-06T13:56:47Z</time>
      </trkpt>
      <trkpt lat="43.47174" lon="-1.56344">
        <ele>40.51</ele>
        <time>2021-07-06T13:56:57Z</time>
      </trkpt>
      <trkpt lat="43.47174" lon="-1.56344">
        <ele>41.47</ele>
        <time>2021-07-06T13:56:58Z</time>
      </trkpt>
      <trkpt lat="43.4717" lon="-1.56345">
        <ele>41.95</ele>
        <time>2021-07-06T13:56:59Z</time>
      </trkpt>
      <trkpt lat="43.47165" lon="-1.56343">
        <ele>42.92</ele>
        <time>2021-07-06T13:57:00Z</time>
      </trkpt>
      <trkpt lat="43.47154" lon="-1.56338">
        <ele>43.4</ele>
        <time>2021-07-06T13:57:01Z</time>
      </trkpt>
      <trkpt lat="43.47154" lon="-1.56338">
        <ele>44.36</ele>
        <time>2021-07-06T13:57:02Z</time>
      </trkpt>
      <trkpt lat="43.47145" lon="-1.56329">
        <ele>46.28</ele>
        <time>2021-07-06T13:57:04Z</time>
      </trkpt>
      <trkpt lat="43.4714" lon="-1.56323">
        <ele>47.24</ele>
        <time>2021-07-06T13:57:05Z</time>
      </trkpt>
      <trkpt lat="43.47096" lon="-1.56269">
        <ele>57.34</ele>
        <time>2021-07-06T13:57:14Z</time>
      </trkpt>
      <trkpt lat="43.47091" lon="-1.56264">
        <ele>58.78</ele>
        <time>2021-07-06T13:57:15Z</time>
      </trkpt>
      <trkpt lat="43.47085" lon="-1.56258">
        <ele>59.74</ele>
        <time>2021-07-06T13:57:16Z</time>
      </trkpt>
      <trkpt lat="43.47062" lon="-1.56237">
        <ele>63.1</ele>
        <time>2021-07-06T13:57:20Z</time>
      </trkpt>
      <trkpt lat="43.47056" lon="-1.56232">
        <ele>63.58</ele>
        <time>2021-07-06T13:57:21Z</time>
      </trkpt>
      <trkpt lat="43.4705" lon="-1.56227">
        <ele>63.58</ele>
        <time>2021-07-06T13:57:22Z</time>
      </trkpt>
      <trkpt lat="43.47045" lon="-1.56221">
        <ele>63.58</ele>
        <time>2021-07-06T13:57:23Z</time>
      </trkpt>
      <trkpt lat="43.47037" lon="-1.56206">
        <ele>63.58</ele>
        <time>2021-07-06T13:57:24Z</time>
      </trkpt>
      <trkpt lat="43.47037" lon="-1.56206">
        <ele>63.58</ele>
        <time>2021-07-06T13:57:25Z</time>
      </trkpt>
      <trkpt lat="43.47009" lon="-1.56113">
        <ele>61.18</ele>
        <time>2021-07-06T13:57:36Z</time>
      </trkpt>
      <trkpt lat="43.47006" lon="-1.56102">
        <ele>60.7</ele>
        <time>2021-07-06T13:57:38Z</time>
      </trkpt>
      <trkpt lat="43.46988" lon="-1.56019">
        <ele>58.78</ele>
        <time>2021-07-06T13:57:49Z</time>
      </trkpt>
      <trkpt lat="43.46979" lon="-1.55959">
        <ele>57.34</ele>
        <time>2021-07-06T13:57:57Z</time>
      </trkpt>
      <trkpt lat="43.46973" lon="-1.55943">
        <ele>57.34</ele>
        <time>2021-07-06T13:57:58Z</time>
      </trkpt>
      <trkpt lat="43.46973" lon="-1.55943">
        <ele>57.34</ele>
        <time>2021-07-06T13:57:59Z</time>
      </trkpt>
      <trkpt lat="43.46928" lon="-1.55865">
        <ele>64.07</ele>
        <time>2021-07-06T13:58:08Z</time>
      </trkpt>
      <trkpt lat="43.46923" lon="-1.55855">
        <ele>63.1</ele>
        <time>2021-07-06T13:58:09Z</time>
      </trkpt>
      <trkpt lat="43.46883" lon="-1.55769">
        <ele>62.14</ele>
        <time>2021-07-06T13:58:18Z</time>
      </trkpt>
      <trkpt lat="43.46883" lon="-1.55758">
        <ele>62.62</ele>
        <time>2021-07-06T13:58:19Z</time>
      </trkpt>
      <trkpt lat="43.46883" lon="-1.5575">
        <ele>62.62</ele>
        <time>2021-07-06T13:58:20Z</time>
      </trkpt>
      <trkpt lat="43.46885" lon="-1.55732">
        <ele>63.1</ele>
        <time>2021-07-06T13:58:21Z</time>
      </trkpt>
      <trkpt lat="43.46885" lon="-1.55732">
        <ele>63.58</ele>
        <time>2021-07-06T13:58:22Z</time>
      </trkpt>
      <trkpt lat="43.46889" lon="-1.55666">
        <ele>66.47</ele>
        <time>2021-07-06T13:58:31Z</time>
      </trkpt>
      <trkpt lat="43.46907" lon="-1.55571">
        <ele>68.39</ele>
        <time>2021-07-06T13:58:45Z</time>
      </trkpt>
      <trkpt lat="43.46903" lon="-1.55529">
        <ele>67.43</ele>
        <time>2021-07-06T13:58:54Z</time>
      </trkpt>
      <trkpt lat="43.46903" lon="-1.55503">
        <ele>67.43</ele>
        <time>2021-07-06T13:59:01Z</time>
      </trkpt>
      <trkpt lat="43.46917" lon="-1.55514">
        <ele>66.47</ele>
        <time>2021-07-06T13:59:08Z</time>
      </trkpt>
      <trkpt lat="43.46915" lon="-1.55524">
        <ele>66.47</ele>
        <time>2021-07-06T13:59:11Z</time>
      </trkpt>
      <trkpt lat="43.46914" lon="-1.55528">
        <ele>65.51</ele>
        <time>2021-07-06T13:59:12Z</time>
      </trkpt>
      <trkpt lat="43.4691" lon="-1.55529">
        <ele>65.51</ele>
        <time>2021-07-06T13:59:13Z</time>
      </trkpt>
      <trkpt lat="43.46905" lon="-1.5553">
        <ele>65.51</ele>
        <time>2021-07-06T13:59:14Z</time>
      </trkpt>
      <trkpt lat="43.46902" lon="-1.55527">
        <ele>65.99</ele>
        <time>2021-07-06T13:59:15Z</time>
      </trkpt>
      <trkpt lat="43.46898" lon="-1.55524">
        <ele>65.99</ele>
        <time>2021-07-06T13:59:16Z</time>
      </trkpt>
      <trkpt lat="43.46897" lon="-1.55523">
        <ele>66.95</ele>
        <time>2021-07-06T13:59:17Z</time>
      </trkpt>
      <trkpt lat="43.46898" lon="-1.55518">
        <ele>66.95</ele>
        <time>2021-07-06T13:59:18Z</time>
      </trkpt>
      <trkpt lat="43.46899" lon="-1.5551">
        <ele>67.43</ele>
        <time>2021-07-06T13:59:19Z</time>
      </trkpt>
      <trkpt lat="43.469" lon="-1.55506">
        <ele>67.43</ele>
        <time>2021-07-06T13:59:20Z</time>
      </trkpt>
      <trkpt lat="43.469" lon="-1.55506">
        <ele>66.95</ele>
        <time>2021-07-06T13:59:21Z</time>
      </trkpt>
      <trkpt lat="43.46894" lon="-1.555">
        <ele>66.95</ele>
        <time>2021-07-06T13:59:22Z</time>
      </trkpt>
      <trkpt lat="43.46891" lon="-1.55498">
        <ele>66.47</ele>
        <time>2021-07-06T13:59:23Z</time>
      </trkpt>
      <trkpt lat="43.46887" lon="-1.55496">
        <ele>66.47</ele>
        <time>2021-07-06T13:59:24Z</time>
      </trkpt>
      <trkpt lat="43.46879" lon="-1.55491">
        <ele>66.47</ele>
        <time>2021-07-06T13:59:25Z</time>
      </trkpt>
      <trkpt lat="43.46879" lon="-1.55491">
        <ele>66.47</ele>
        <time>2021-07-06T13:59:26Z</time>
      </trkpt>
      <trkpt lat="43.46807" lon="-1.55462">
        <ele>67.43</ele>
        <time>2021-07-06T13:59:36Z</time>
      </trkpt>
      <trkpt lat="43.46651" lon="-1.55396">
        <ele>68.87</ele>
        <time>2021-07-06T13:59:54Z</time>
      </trkpt>
      <trkpt lat="43.46541" lon="-1.55317">
        <ele>75.6</ele>
        <time>2021-07-06T14:00:06Z</time>
      </trkpt>
      <trkpt lat="43.46377" lon="-1.55203">
        <ele>73.68</ele>
        <time>2021-07-06T14:00:24Z</time>
      </trkpt>
      <trkpt lat="43.46291" lon="-1.55153">
        <ele>67.43</ele>
        <time>2021-07-06T14:00:37Z</time>
      </trkpt>
      <trkpt lat="43.46276" lon="-1.55143">
        <ele>65.99</ele>
        <time>2021-07-06T14:00:46Z</time>
      </trkpt>
      <trkpt lat="43.4627" lon="-1.55139">
        <ele>65.51</ele>
        <time>2021-07-06T14:00:52Z</time>
      </trkpt>
      <trkpt lat="43.46214" lon="-1.55099">
        <ele>63.1</ele>
        <time>2021-07-06T14:01:03Z</time>
      </trkpt>
      <trkpt lat="43.46203" lon="-1.55086">
        <ele>62.62</ele>
        <time>2021-07-06T14:01:04Z</time>
      </trkpt>
      <trkpt lat="43.46198" lon="-1.55078">
        <ele>62.14</ele>
        <time>2021-07-06T14:01:05Z</time>
      </trkpt>
      <trkpt lat="43.46198" lon="-1.55078">
        <ele>62.14</ele>
        <time>2021-07-06T14:01:06Z</time>
      </trkpt>
      <trkpt lat="43.46161" lon="-1.55009">
        <ele>58.3</ele>
        <time>2021-07-06T14:01:16Z</time>
      </trkpt>
      <trkpt lat="43.46154" lon="-1.54997">
        <ele>55.89</ele>
        <time>2021-07-06T14:01:30Z</time>
      </trkpt>
      <trkpt lat="43.46112" lon="-1.5492">
        <ele>52.53</ele>
        <time>2021-07-06T14:01:45Z</time>
      </trkpt>
      <trkpt lat="43.46064" lon="-1.54827">
        <ele>47.72</ele>
        <time>2021-07-06T14:02:00Z</time>
      </trkpt>
      <trkpt lat="43.46048" lon="-1.54799">
        <ele>46.76</ele>
        <time>2021-07-06T14:02:05Z</time>
      </trkpt>
      <trkpt lat="43.46045" lon="-1.54795">
        <ele>46.28</ele>
        <time>2021-07-06T14:02:06Z</time>
      </trkpt>
      <trkpt lat="43.46042" lon="-1.54792">
        <ele>46.28</ele>
        <time>2021-07-06T14:02:07Z</time>
      </trkpt>
      <trkpt lat="43.46039" lon="-1.5479">
        <ele>45.8</ele>
        <time>2021-07-06T14:02:08Z</time>
      </trkpt>
      <trkpt lat="43.46037" lon="-1.54787">
        <ele>45.8</ele>
        <time>2021-07-06T14:02:09Z</time>
      </trkpt>
      <trkpt lat="43.46028" lon="-1.54794">
        <ele>45.8</ele>
        <time>2021-07-06T14:02:10Z</time>
      </trkpt>
      <trkpt lat="43.4603" lon="-1.54789">
        <ele>45.8</ele>
        <time>2021-07-06T14:02:11Z</time>
      </trkpt>
      <trkpt lat="43.46025" lon="-1.54794">
        <ele>45.32</ele>
        <time>2021-07-06T14:02:12Z</time>
      </trkpt>
      <trkpt lat="43.46019" lon="-1.54796">
        <ele>45.32</ele>
        <time>2021-07-06T14:02:13Z</time>
      </trkpt>
      <trkpt lat="43.46009" lon="-1.54784">
        <ele>45.32</ele>
        <time>2021-07-06T14:02:14Z</time>
      </trkpt>
      <trkpt lat="43.46007" lon="-1.54779">
        <ele>44.84</ele>
        <time>2021-07-06T14:02:15Z</time>
      </trkpt>
      <trkpt lat="43.46007" lon="-1.54779">
        <ele>44.84</ele>
        <time>2021-07-06T14:02:16Z</time>
      </trkpt>
      <trkpt lat="43.46006" lon="-1.54774">
        <ele>44.36</ele>
        <time>2021-07-06T14:02:17Z</time>
      </trkpt>
      <trkpt lat="43.46001" lon="-1.5477">
        <ele>44.36</ele>
        <time>2021-07-06T14:02:18Z</time>
      </trkpt>
      <trkpt lat="43.45997" lon="-1.5477">
        <ele>44.36</ele>
        <time>2021-07-06T14:02:19Z</time>
      </trkpt>
      <trkpt lat="43.45993" lon="-1.54769">
        <ele>43.88</ele>
        <time>2021-07-06T14:02:20Z</time>
      </trkpt>
      <trkpt lat="43.45934" lon="-1.54759">
        <ele>41.95</ele>
        <time>2021-07-06T14:02:28Z</time>
      </trkpt>
      <trkpt lat="43.45871" lon="-1.5474">
        <ele>41.95</ele>
        <time>2021-07-06T14:02:39Z</time>
      </trkpt>
      <trkpt lat="43.45864" lon="-1.54739">
        <ele>41.47</ele>
        <time>2021-07-06T14:02:41Z</time>
      </trkpt>
      <trkpt lat="43.45856" lon="-1.54744">
        <ele>41.47</ele>
        <time>2021-07-06T14:02:42Z</time>
      </trkpt>
      <trkpt lat="43.45856" lon="-1.54744">
        <ele>41.47</ele>
        <time>2021-07-06T14:02:43Z</time>
      </trkpt>
      <trkpt lat="43.45853" lon="-1.54748">
        <ele>40.99</ele>
        <time>2021-07-06T14:02:44Z</time>
      </trkpt>
      <trkpt lat="43.4585" lon="-1.54753">
        <ele>40.99</ele>
        <time>2021-07-06T14:02:45Z</time>
      </trkpt>
      <trkpt lat="43.4585" lon="-1.54753">
        <ele>40.99</ele>
        <time>2021-07-06T14:02:46Z</time>
      </trkpt>
      <trkpt lat="43.45839" lon="-1.54764">
        <ele>40.51</ele>
        <time>2021-07-06T14:02:47Z</time>
      </trkpt>
      <trkpt lat="43.45839" lon="-1.54772">
        <ele>40.03</ele>
        <time>2021-07-06T14:02:48Z</time>
      </trkpt>
      <trkpt lat="43.45838" lon="-1.54781">
        <ele>39.55</ele>
        <time>2021-07-06T14:02:49Z</time>
      </trkpt>
      <trkpt lat="43.45838" lon="-1.54791">
        <ele>38.59</ele>
        <time>2021-07-06T14:02:50Z</time>
      </trkpt>
      <trkpt lat="43.45838" lon="-1.54803">
        <ele>38.11</ele>
        <time>2021-07-06T14:02:51Z</time>
      </trkpt>
      <trkpt lat="43.45842" lon="-1.54826">
        <ele>37.15</ele>
        <time>2021-07-06T14:02:53Z</time>
      </trkpt>
      <trkpt lat="43.45844" lon="-1.54838">
        <ele>37.15</ele>
        <time>2021-07-06T14:02:54Z</time>
      </trkpt>
      <trkpt lat="43.45846" lon="-1.5485">
        <ele>37.15</ele>
        <time>2021-07-06T14:02:55Z</time>
      </trkpt>
      <trkpt lat="43.45848" lon="-1.54862">
        <ele>37.15</ele>
        <time>2021-07-06T14:02:56Z</time>
      </trkpt>
      <trkpt lat="43.45845" lon="-1.54873">
        <ele>37.15</ele>
        <time>2021-07-06T14:02:57Z</time>
      </trkpt>
      <trkpt lat="43.45841" lon="-1.54886">
        <ele>36.19</ele>
        <time>2021-07-06T14:02:58Z</time>
      </trkpt>
      <trkpt lat="43.45837" lon="-1.549">
        <ele>34.74</ele>
        <time>2021-07-06T14:02:59Z</time>
      </trkpt>
      <trkpt lat="43.45833" lon="-1.54913">
        <ele>34.26</ele>
        <time>2021-07-06T14:03:00Z</time>
      </trkpt>
      <trkpt lat="43.4583" lon="-1.54925">
        <ele>33.3</ele>
        <time>2021-07-06T14:03:01Z</time>
      </trkpt>
      <trkpt lat="43.45813" lon="-1.54969">
        <ele>35.23</ele>
        <time>2021-07-06T14:03:05Z</time>
      </trkpt>
      <trkpt lat="43.45807" lon="-1.54977">
        <ele>34.26</ele>
        <time>2021-07-06T14:03:06Z</time>
      </trkpt>
      <trkpt lat="43.45727" lon="-1.55065">
        <ele>41.47</ele>
        <time>2021-07-06T14:03:15Z</time>
      </trkpt>
      <trkpt lat="43.45583" lon="-1.55197">
        <ele>53.01</ele>
        <time>2021-07-06T14:03:27Z</time>
      </trkpt>
      <trkpt lat="43.45359" lon="-1.55418">
        <ele>63.1</ele>
        <time>2021-07-06T14:03:43Z</time>
      </trkpt>
      <trkpt lat="43.4522" lon="-1.55556">
        <ele>65.51</ele>
        <time>2021-07-06T14:03:54Z</time>
      </trkpt>
      <trkpt lat="43.45135" lon="-1.5564">
        <ele>69.35</ele>
        <time>2021-07-06T14:04:03Z</time>
      </trkpt>
      <trkpt lat="43.45122" lon="-1.55648">
        <ele>69.83</ele>
        <time>2021-07-06T14:04:05Z</time>
      </trkpt>
      <trkpt lat="43.45111" lon="-1.55662">
        <ele>69.83</ele>
        <time>2021-07-06T14:04:06Z</time>
      </trkpt>
      <trkpt lat="43.4511" lon="-1.55671">
        <ele>69.83</ele>
        <time>2021-07-06T14:04:07Z</time>
      </trkpt>
      <trkpt lat="43.4511" lon="-1.55671">
        <ele>69.83</ele>
        <time>2021-07-06T14:04:08Z</time>
      </trkpt>
      <trkpt lat="43.45108" lon="-1.55679">
        <ele>69.83</ele>
        <time>2021-07-06T14:04:09Z</time>
      </trkpt>
      <trkpt lat="43.45099" lon="-1.55691">
        <ele>69.83</ele>
        <time>2021-07-06T14:04:10Z</time>
      </trkpt>
      <trkpt lat="43.45093" lon="-1.55693">
        <ele>69.83</ele>
        <time>2021-07-06T14:04:11Z</time>
      </trkpt>
      <trkpt lat="43.45086" lon="-1.55694">
        <ele>70.31</ele>
        <time>2021-07-06T14:04:12Z</time>
      </trkpt>
      <trkpt lat="43.4508" lon="-1.55692">
        <ele>70.31</ele>
        <time>2021-07-06T14:04:13Z</time>
      </trkpt>
      <trkpt lat="43.45074" lon="-1.55686">
        <ele>71.27</ele>
        <time>2021-07-06T14:04:14Z</time>
      </trkpt>
      <trkpt lat="43.45069" lon="-1.55681">
        <ele>71.27</ele>
        <time>2021-07-06T14:04:15Z</time>
      </trkpt>
      <trkpt lat="43.45069" lon="-1.55681">
        <ele>71.76</ele>
        <time>2021-07-06T14:04:16Z</time>
      </trkpt>
      <trkpt lat="43.45064" lon="-1.55675">
        <ele>71.76</ele>
        <time>2021-07-06T14:04:17Z</time>
      </trkpt>
      <trkpt lat="43.45063" lon="-1.5566">
        <ele>72.24</ele>
        <time>2021-07-06T14:04:18Z</time>
      </trkpt>
      <trkpt lat="43.45063" lon="-1.5566">
        <ele>72.72</ele>
        <time>2021-07-06T14:04:19Z</time>
      </trkpt>
      <trkpt lat="43.45063" lon="-1.55651">
        <ele>72.72</ele>
        <time>2021-07-06T14:04:20Z</time>
      </trkpt>
      <trkpt lat="43.45065" lon="-1.55646">
        <ele>71.27</ele>
        <time>2021-07-06T14:04:21Z</time>
      </trkpt>
      <trkpt lat="43.45069" lon="-1.55638">
        <ele>71.27</ele>
        <time>2021-07-06T14:04:22Z</time>
      </trkpt>
      <trkpt lat="43.45071" lon="-1.55623">
        <ele>71.27</ele>
        <time>2021-07-06T14:04:23Z</time>
      </trkpt>
      <trkpt lat="43.4507" lon="-1.55614">
        <ele>70.79</ele>
        <time>2021-07-06T14:04:24Z</time>
      </trkpt>
      <trkpt lat="43.4507" lon="-1.55603">
        <ele>70.79</ele>
        <time>2021-07-06T14:04:25Z</time>
      </trkpt>
      <trkpt lat="43.45069" lon="-1.55591">
        <ele>70.31</ele>
        <time>2021-07-06T14:04:26Z</time>
      </trkpt>
      <trkpt lat="43.45067" lon="-1.55581">
        <ele>69.83</ele>
        <time>2021-07-06T14:04:27Z</time>
      </trkpt>
      <trkpt lat="43.45044" lon="-1.55481">
        <ele>67.91</ele>
        <time>2021-07-06T14:04:37Z</time>
      </trkpt>
      <trkpt lat="43.45034" lon="-1.55444">
        <ele>67.43</ele>
        <time>2021-07-06T14:04:48Z</time>
      </trkpt>
      <trkpt lat="43.45025" lon="-1.55412">
        <ele>65.03</ele>
        <time>2021-07-06T14:04:59Z</time>
      </trkpt>
      <trkpt lat="43.44975" lon="-1.55268">
        <ele>60.7</ele>
        <time>2021-07-06T14:05:11Z</time>
      </trkpt>
      <trkpt lat="43.44891" lon="-1.55121">
        <ele>53.49</ele>
        <time>2021-07-06T14:05:23Z</time>
      </trkpt>
      <trkpt lat="43.44885" lon="-1.55115">
        <ele>53.97</ele>
        <time>2021-07-06T14:05:24Z</time>
      </trkpt>
      <trkpt lat="43.44875" lon="-1.5511">
        <ele>53.97</ele>
        <time>2021-07-06T14:05:25Z</time>
      </trkpt>
      <trkpt lat="43.44864" lon="-1.55105">
        <ele>53.01</ele>
        <time>2021-07-06T14:05:26Z</time>
      </trkpt>
      <trkpt lat="43.44854" lon="-1.551">
        <ele>52.53</ele>
        <time>2021-07-06T14:05:27Z</time>
      </trkpt>
      <trkpt lat="43.44808" lon="-1.55101">
        <ele>51.57</ele>
        <time>2021-07-06T14:05:30Z</time>
      </trkpt>
      <trkpt lat="43.44808" lon="-1.55101">
        <ele>51.09</ele>
        <time>2021-07-06T14:05:31Z</time>
      </trkpt>
      <trkpt lat="43.44796" lon="-1.55108">
        <ele>51.57</ele>
        <time>2021-07-06T14:05:32Z</time>
      </trkpt>
      <trkpt lat="43.44784" lon="-1.55116">
        <ele>51.57</ele>
        <time>2021-07-06T14:05:33Z</time>
      </trkpt>
      <trkpt lat="43.44772" lon="-1.55125">
        <ele>51.57</ele>
        <time>2021-07-06T14:05:34Z</time>
      </trkpt>
      <trkpt lat="43.44761" lon="-1.55137">
        <ele>52.05</ele>
        <time>2021-07-06T14:05:35Z</time>
      </trkpt>
      <trkpt lat="43.4475" lon="-1.55149">
        <ele>52.53</ele>
        <time>2021-07-06T14:05:36Z</time>
      </trkpt>
      <trkpt lat="43.44743" lon="-1.55165">
        <ele>53.97</ele>
        <time>2021-07-06T14:05:37Z</time>
      </trkpt>
      <trkpt lat="43.44737" lon="-1.55179">
        <ele>53.97</ele>
        <time>2021-07-06T14:05:38Z</time>
      </trkpt>
      <trkpt lat="43.4473" lon="-1.55194">
        <ele>53.49</ele>
        <time>2021-07-06T14:05:39Z</time>
      </trkpt>
      <trkpt lat="43.44726" lon="-1.55209">
        <ele>53.01</ele>
        <time>2021-07-06T14:05:40Z</time>
      </trkpt>
      <trkpt lat="43.44726" lon="-1.55224">
        <ele>53.01</ele>
        <time>2021-07-06T14:05:41Z</time>
      </trkpt>
      <trkpt lat="43.44728" lon="-1.55238">
        <ele>53.01</ele>
        <time>2021-07-06T14:05:42Z</time>
      </trkpt>
      <trkpt lat="43.4473" lon="-1.55251">
        <ele>53.01</ele>
        <time>2021-07-06T14:05:43Z</time>
      </trkpt>
      <trkpt lat="43.44737" lon="-1.55263">
        <ele>53.01</ele>
        <time>2021-07-06T14:05:44Z</time>
      </trkpt>
      <trkpt lat="43.44744" lon="-1.55266">
        <ele>53.01</ele>
        <time>2021-07-06T14:05:45Z</time>
      </trkpt>
      <trkpt lat="43.44753" lon="-1.55269">
        <ele>53.01</ele>
        <time>2021-07-06T14:05:46Z</time>
      </trkpt>
      <trkpt lat="43.44762" lon="-1.55272">
        <ele>53.01</ele>
        <time>2021-07-06T14:05:47Z</time>
      </trkpt>
      <trkpt lat="43.4477" lon="-1.55275">
        <ele>52.53</ele>
        <time>2021-07-06T14:05:48Z</time>
      </trkpt>
      <trkpt lat="43.44781" lon="-1.55272">
        <ele>52.53</ele>
        <time>2021-07-06T14:05:49Z</time>
      </trkpt>
      <trkpt lat="43.44789" lon="-1.55267">
        <ele>53.01</ele>
        <time>2021-07-06T14:05:50Z</time>
      </trkpt>
      <trkpt lat="43.44798" lon="-1.55255">
        <ele>53.97</ele>
        <time>2021-07-06T14:05:51Z</time>
      </trkpt>
      <trkpt lat="43.44804" lon="-1.55243">
        <ele>55.41</ele>
        <time>2021-07-06T14:05:52Z</time>
      </trkpt>
      <trkpt lat="43.4481" lon="-1.55231">
        <ele>55.89</ele>
        <time>2021-07-06T14:05:53Z</time>
      </trkpt>
      <trkpt lat="43.44817" lon="-1.55215">
        <ele>55.89</ele>
        <time>2021-07-06T14:05:54Z</time>
      </trkpt>
      <trkpt lat="43.44818" lon="-1.55035">
        <ele>50.61</ele>
        <time>2021-07-06T14:06:03Z</time>
      </trkpt>
      <trkpt lat="43.44766" lon="-1.54727">
        <ele>45.8</ele>
        <time>2021-07-06T14:06:16Z</time>
      </trkpt>
      <trkpt lat="43.44716" lon="-1.54426">
        <ele>40.51</ele>
        <time>2021-07-06T14:06:26Z</time>
      </trkpt>
      <trkpt lat="43.44706" lon="-1.54153">
        <ele>41.47</ele>
        <time>2021-07-06T14:06:34Z</time>
      </trkpt>
      <trkpt lat="43.44746" lon="-1.53921">
        <ele>46.76</ele>
        <time>2021-07-06T14:06:41Z</time>
      </trkpt>
      <trkpt lat="43.4484" lon="-1.53682">
        <ele>55.41</ele>
        <time>2021-07-06T14:06:49Z</time>
      </trkpt>
      <trkpt lat="43.4498" lon="-1.53489">
        <ele>59.74</ele>
        <time>2021-07-06T14:06:57Z</time>
      </trkpt>
      <trkpt lat="43.45255" lon="-1.53151">
        <ele>70.79</ele>
        <time>2021-07-06T14:07:12Z</time>
      </trkpt>
      <trkpt lat="43.45389" lon="-1.52899">
        <ele>70.31</ele>
        <time>2021-07-06T14:07:21Z</time>
      </trkpt>
      <trkpt lat="43.45539" lon="-1.52523">
        <ele>59.26</ele>
        <time>2021-07-06T14:07:33Z</time>
      </trkpt>
      <trkpt lat="43.45672" lon="-1.52302">
        <ele>48.68</ele>
        <time>2021-07-06T14:07:41Z</time>
      </trkpt>
      <trkpt lat="43.45893" lon="-1.52037">
        <ele>35.71</ele>
        <time>2021-07-06T14:07:52Z</time>
      </trkpt>
      <trkpt lat="43.46023" lon="-1.51813">
        <ele>33.78</ele>
        <time>2021-07-06T14:08:00Z</time>
      </trkpt>
      <trkpt lat="43.46108" lon="-1.51553">
        <ele>30.9</ele>
        <time>2021-07-06T14:08:08Z</time>
      </trkpt>
      <trkpt lat="43.46146" lon="-1.51271">
        <ele>20.32</ele>
        <time>2021-07-06T14:08:16Z</time>
      </trkpt>
      <trkpt lat="43.46144" lon="-1.50842">
        <ele>15.52</ele>
        <time>2021-07-06T14:08:28Z</time>
      </trkpt>
      <trkpt lat="43.4612" lon="-1.50395">
        <ele>15.52</ele>
        <time>2021-07-06T14:08:40Z</time>
      </trkpt>
      <trkpt lat="43.4608" lon="-1.49814">
        <ele>20.32</ele>
        <time>2021-07-06T14:08:56Z</time>
      </trkpt>
      <trkpt lat="43.461" lon="-1.49563">
        <ele>18.4</ele>
        <time>2021-07-06T14:09:03Z</time>
      </trkpt>
      <trkpt lat="43.46176" lon="-1.49259">
        <ele>18.88</ele>
        <time>2021-07-06T14:09:12Z</time>
      </trkpt>
      <trkpt lat="43.4635" lon="-1.48718">
        <ele>8.79</ele>
        <time>2021-07-06T14:09:27Z</time>
      </trkpt>
      <trkpt lat="43.46478" lon="-1.48446">
        <ele>5.91</ele>
        <time>2021-07-06T14:09:37Z</time>
      </trkpt>
      <trkpt lat="43.46811" lon="-1.47806">
        <ele>1.1</ele>
        <time>2021-07-06T14:09:58Z</time>
      </trkpt>
      <trkpt lat="43.46912" lon="-1.47536">
        <ele>1.58</ele>
        <time>2021-07-06T14:10:06Z</time>
      </trkpt>
      <trkpt lat="43.4697" lon="-1.47249">
        <ele>2.54</ele>
        <time>2021-07-06T14:10:14Z</time>
      </trkpt>
      <trkpt lat="43.46991" lon="-1.46931">
        <ele>8.79</ele>
        <time>2021-07-06T14:10:23Z</time>
      </trkpt>
      <trkpt lat="43.4702" lon="-1.46663">
        <ele>6.87</ele>
        <time>2021-07-06T14:10:31Z</time>
      </trkpt>
      <trkpt lat="43.47098" lon="-1.46449">
        <ele>1.58</ele>
        <time>2021-07-06T14:10:38Z</time>
      </trkpt>
      <trkpt lat="43.47263" lon="-1.46187">
        <ele>4.46</ele>
        <time>2021-07-06T14:10:48Z</time>
      </trkpt>
      <trkpt lat="43.47368" lon="-1.4596">
        <ele>16.48</ele>
        <time>2021-07-06T14:10:56Z</time>
      </trkpt>
      <trkpt lat="43.47423" lon="-1.45705">
        <ele>22.73</ele>
        <time>2021-07-06T14:11:04Z</time>
      </trkpt>
      <trkpt lat="43.47503" lon="-1.45384">
        <ele>23.69</ele>
        <time>2021-07-06T14:11:14Z</time>
      </trkpt>
      <trkpt lat="43.47648" lon="-1.45053">
        <ele>16</ele>
        <time>2021-07-06T14:11:24Z</time>
      </trkpt>
      <trkpt lat="43.47775" lon="-1.44867">
        <ele>12.63</ele>
        <time>2021-07-06T14:11:32Z</time>
      </trkpt>
      <trkpt lat="43.4794" lon="-1.44736">
        <ele>8.79</ele>
        <time>2021-07-06T14:11:38Z</time>
      </trkpt>
      <trkpt lat="43.48094" lon="-1.44697">
        <ele>5.91</ele>
        <time>2021-07-06T14:11:44Z</time>
      </trkpt>
      <trkpt lat="43.48247" lon="-1.44717">
        <ele>5.91</ele>
        <time>2021-07-06T14:11:51Z</time>
      </trkpt>
      <trkpt lat="43.48617" lon="-1.44837">
        <ele>0.14</ele>
        <time>2021-07-06T14:12:06Z</time>
      </trkpt>
      <trkpt lat="43.4904" lon="-1.44964">
        <ele>-3.71</ele>
        <time>2021-07-06T14:12:23Z</time>
      </trkpt>
      <trkpt lat="43.4922" lon="-1.44944">
        <ele>-2.27</ele>
        <time>2021-07-06T14:12:30Z</time>
      </trkpt>
      <trkpt lat="43.49401" lon="-1.44875">
        <ele>-1.79</ele>
        <time>2021-07-06T14:12:37Z</time>
      </trkpt>
      <trkpt lat="43.49567" lon="-1.44741">
        <ele>-3.23</ele>
        <time>2021-07-06T14:12:44Z</time>
      </trkpt>
      <trkpt lat="43.49703" lon="-1.44553">
        <ele>-1.3</ele>
        <time>2021-07-06T14:12:51Z</time>
      </trkpt>
      <trkpt lat="43.49878" lon="-1.44267">
        <ele>5.91</ele>
        <time>2021-07-06T14:13:01Z</time>
      </trkpt>
      <trkpt lat="43.50014" lon="-1.44129">
        <ele>5.42</ele>
        <time>2021-07-06T14:13:07Z</time>
      </trkpt>
      <trkpt lat="43.50217" lon="-1.44016">
        <ele>2.06</ele>
        <time>2021-07-06T14:13:15Z</time>
      </trkpt>
      <trkpt lat="43.50438" lon="-1.43995">
        <ele>2.06</ele>
        <time>2021-07-06T14:13:22Z</time>
      </trkpt>
      <trkpt lat="43.506" lon="-1.44038">
        <ele>5.42</ele>
        <time>2021-07-06T14:13:29Z</time>
      </trkpt>
      <trkpt lat="43.50802" lon="-1.44169">
        <ele>7.83</ele>
        <time>2021-07-06T14:13:36Z</time>
      </trkpt>
      <trkpt lat="43.51032" lon="-1.44311">
        <ele>6.39</ele>
        <time>2021-07-06T14:13:46Z</time>
      </trkpt>
      <trkpt lat="43.51223" lon="-1.44357">
        <ele>4.94</ele>
        <time>2021-07-06T14:13:53Z</time>
      </trkpt>
      <trkpt lat="43.51418" lon="-1.44335">
        <ele>7.35</ele>
        <time>2021-07-06T14:14:00Z</time>
      </trkpt>
      <trkpt lat="43.51715" lon="-1.4424">
        <ele>11.19</ele>
        <time>2021-07-06T14:14:11Z</time>
      </trkpt>
      <trkpt lat="43.52122" lon="-1.44151">
        <ele>23.21</ele>
        <time>2021-07-06T14:14:26Z</time>
      </trkpt>
      <trkpt lat="43.52434" lon="-1.44001">
        <ele>32.34</ele>
        <time>2021-07-06T14:14:38Z</time>
      </trkpt>
      <trkpt lat="43.52655" lon="-1.43834">
        <ele>30.9</ele>
        <time>2021-07-06T14:14:47Z</time>
      </trkpt>
      <trkpt lat="43.52835" lon="-1.43618">
        <ele>20.81</ele>
        <time>2021-07-06T14:14:55Z</time>
      </trkpt>
      <trkpt lat="43.53074" lon="-1.43308">
        <ele>9.75</ele>
        <time>2021-07-06T14:15:06Z</time>
      </trkpt>
      <trkpt lat="43.53253" lon="-1.43172">
        <ele>6.87</ele>
        <time>2021-07-06T14:15:13Z</time>
      </trkpt>
      <trkpt lat="43.53419" lon="-1.43118">
        <ele>1.58</ele>
        <time>2021-07-06T14:15:19Z</time>
      </trkpt>
      <trkpt lat="43.53618" lon="-1.43135">
        <ele>-0.34</ele>
        <time>2021-07-06T14:15:26Z</time>
      </trkpt>
      <trkpt lat="43.53931" lon="-1.43183">
        <ele>-3.23</ele>
        <time>2021-07-06T14:15:37Z</time>
      </trkpt>
      <trkpt lat="43.54222" lon="-1.43146">
        <ele>0.62</ele>
        <time>2021-07-06T14:15:47Z</time>
      </trkpt>
      <trkpt lat="43.54455" lon="-1.43154">
        <ele>4.46</ele>
        <time>2021-07-06T14:15:55Z</time>
      </trkpt>
      <trkpt lat="43.54816" lon="-1.43244">
        <ele>19.36</ele>
        <time>2021-07-06T14:16:07Z</time>
      </trkpt>
      <trkpt lat="43.55005" lon="-1.43248">
        <ele>30.9</ele>
        <time>2021-07-06T14:16:15Z</time>
      </trkpt>
      <trkpt lat="43.55496" lon="-1.43206">
        <ele>37.15</ele>
        <time>2021-07-06T14:16:33Z</time>
      </trkpt>
      <trkpt lat="43.55718" lon="-1.43143">
        <ele>33.3</ele>
        <time>2021-07-06T14:16:41Z</time>
      </trkpt>
      <trkpt lat="43.56024" lon="-1.43042">
        <ele>26.09</ele>
        <time>2021-07-06T14:16:52Z</time>
      </trkpt>
      <trkpt lat="43.56252" lon="-1.43024">
        <ele>22.73</ele>
        <time>2021-07-06T14:17:00Z</time>
      </trkpt>
      <trkpt lat="43.56537" lon="-1.4307">
        <ele>21.29</ele>
        <time>2021-07-06T14:17:10Z</time>
      </trkpt>
      <trkpt lat="43.56792" lon="-1.43077">
        <ele>29.46</ele>
        <time>2021-07-06T14:17:18Z</time>
      </trkpt>
      <trkpt lat="43.57125" lon="-1.43007">
        <ele>28.98</ele>
        <time>2021-07-06T14:17:31Z</time>
      </trkpt>
      <trkpt lat="43.57366" lon="-1.42886">
        <ele>21.29</ele>
        <time>2021-07-06T14:17:40Z</time>
      </trkpt>
      <trkpt lat="43.57562" lon="-1.42719">
        <ele>16.48</ele>
        <time>2021-07-06T14:17:48Z</time>
      </trkpt>
      <trkpt lat="43.57917" lon="-1.42359">
        <ele>10.23</ele>
        <time>2021-07-06T14:18:03Z</time>
      </trkpt>
      <trkpt lat="43.5818" lon="-1.42174">
        <ele>6.39</ele>
        <time>2021-07-06T14:18:13Z</time>
      </trkpt>
      <trkpt lat="43.5849" lon="-1.42043">
        <ele>5.42</ele>
        <time>2021-07-06T14:18:23Z</time>
      </trkpt>
      <trkpt lat="43.58855" lon="-1.41921">
        <ele>5.42</ele>
        <time>2021-07-06T14:18:37Z</time>
      </trkpt>
      <trkpt lat="43.59232" lon="-1.41707">
        <ele>7.35</ele>
        <time>2021-07-06T14:18:51Z</time>
      </trkpt>
      <trkpt lat="43.59513" lon="-1.41591">
        <ele>10.71</ele>
        <time>2021-07-06T14:19:01Z</time>
      </trkpt>
      <trkpt lat="43.59778" lon="-1.41541">
        <ele>14.08</ele>
        <time>2021-07-06T14:19:10Z</time>
      </trkpt>
      <trkpt lat="43.60067" lon="-1.41563">
        <ele>13.12</ele>
        <time>2021-07-06T14:19:20Z</time>
      </trkpt>
      <trkpt lat="43.60438" lon="-1.41613">
        <ele>9.75</ele>
        <time>2021-07-06T14:19:33Z</time>
      </trkpt>
      <trkpt lat="43.60695" lon="-1.41579">
        <ele>9.75</ele>
        <time>2021-07-06T14:19:42Z</time>
      </trkpt>
      <trkpt lat="43.61112" lon="-1.41424">
        <ele>9.75</ele>
        <time>2021-07-06T14:19:56Z</time>
      </trkpt>
      <trkpt lat="43.61374" lon="-1.41284">
        <ele>11.67</ele>
        <time>2021-07-06T14:20:06Z</time>
      </trkpt>
      <trkpt lat="43.61557" lon="-1.41114">
        <ele>16</ele>
        <time>2021-07-06T14:20:14Z</time>
      </trkpt>
      <trkpt lat="43.61689" lon="-1.40932">
        <ele>14.56</ele>
        <time>2021-07-06T14:20:22Z</time>
      </trkpt>
      <trkpt lat="43.61841" lon="-1.4069">
        <ele>11.67</ele>
        <time>2021-07-06T14:20:32Z</time>
      </trkpt>
      <trkpt lat="43.62033" lon="-1.40433">
        <ele>11.19</ele>
        <time>2021-07-06T14:20:44Z</time>
      </trkpt>
      <trkpt lat="43.62191" lon="-1.40246">
        <ele>7.35</ele>
        <time>2021-07-06T14:20:54Z</time>
      </trkpt>
      <trkpt lat="43.62304" lon="-1.40086">
        <ele>5.42</ele>
        <time>2021-07-06T14:21:03Z</time>
      </trkpt>
      <trkpt lat="43.62402" lon="-1.39968">
        <ele>5.42</ele>
        <time>2021-07-06T14:21:12Z</time>
      </trkpt>
      <trkpt lat="43.6254" lon="-1.39845">
        <ele>6.39</ele>
        <time>2021-07-06T14:21:22Z</time>
      </trkpt>
      <trkpt lat="43.62625" lon="-1.39665">
        <ele>2.06</ele>
        <time>2021-07-06T14:21:31Z</time>
      </trkpt>
      <trkpt lat="43.62653" lon="-1.39589">
        <ele>2.54</ele>
        <time>2021-07-06T14:21:35Z</time>
      </trkpt>
      <trkpt lat="43.62663" lon="-1.39582">
        <ele>3.98</ele>
        <time>2021-07-06T14:21:36Z</time>
      </trkpt>
      <trkpt lat="43.62672" lon="-1.39577">
        <ele>4.46</ele>
        <time>2021-07-06T14:21:37Z</time>
      </trkpt>
      <trkpt lat="43.62682" lon="-1.39572">
        <ele>4.94</ele>
        <time>2021-07-06T14:21:38Z</time>
      </trkpt>
      <trkpt lat="43.6269" lon="-1.39569">
        <ele>5.91</ele>
        <time>2021-07-06T14:21:39Z</time>
      </trkpt>
      <trkpt lat="43.627" lon="-1.39569">
        <ele>6.39</ele>
        <time>2021-07-06T14:21:40Z</time>
      </trkpt>
      <trkpt lat="43.62709" lon="-1.39573">
        <ele>6.87</ele>
        <time>2021-07-06T14:21:41Z</time>
      </trkpt>
      <trkpt lat="43.62718" lon="-1.39578">
        <ele>7.83</ele>
        <time>2021-07-06T14:21:42Z</time>
      </trkpt>
      <trkpt lat="43.62726" lon="-1.39588">
        <ele>8.31</ele>
        <time>2021-07-06T14:21:43Z</time>
      </trkpt>
      <trkpt lat="43.62734" lon="-1.39599">
        <ele>9.27</ele>
        <time>2021-07-06T14:21:44Z</time>
      </trkpt>
      <trkpt lat="43.62811" lon="-1.39709">
        <ele>11.19</ele>
        <time>2021-07-06T14:21:53Z</time>
      </trkpt>
      <trkpt lat="43.62821" lon="-1.39715">
        <ele>11.19</ele>
        <time>2021-07-06T14:21:54Z</time>
      </trkpt>
      <trkpt lat="43.62821" lon="-1.39715">
        <ele>10.23</ele>
        <time>2021-07-06T14:21:55Z</time>
      </trkpt>
      <trkpt lat="43.6283" lon="-1.39718">
        <ele>8.79</ele>
        <time>2021-07-06T14:21:56Z</time>
      </trkpt>
      <trkpt lat="43.62839" lon="-1.39719">
        <ele>8.79</ele>
        <time>2021-07-06T14:21:57Z</time>
      </trkpt>
      <trkpt lat="43.62848" lon="-1.39715">
        <ele>7.35</ele>
        <time>2021-07-06T14:21:58Z</time>
      </trkpt>
      <trkpt lat="43.62857" lon="-1.39712">
        <ele>7.83</ele>
        <time>2021-07-06T14:21:59Z</time>
      </trkpt>
      <trkpt lat="43.62873" lon="-1.39698">
        <ele>7.35</ele>
        <time>2021-07-06T14:22:00Z</time>
      </trkpt>
      <trkpt lat="43.62873" lon="-1.39698">
        <ele>6.87</ele>
        <time>2021-07-06T14:22:01Z</time>
      </trkpt>
      <trkpt lat="43.62957" lon="-1.39612">
        <ele>4.94</ele>
        <time>2021-07-06T14:22:13Z</time>
      </trkpt>
      <trkpt lat="43.62965" lon="-1.39605">
        <ele>4.46</ele>
        <time>2021-07-06T14:22:20Z</time>
      </trkpt>
      <trkpt lat="43.62987" lon="-1.39584">
        <ele>4.46</ele>
        <time>2021-07-06T14:22:27Z</time>
      </trkpt>
      <trkpt lat="43.63056" lon="-1.39509">
        <ele>11.19</ele>
        <time>2021-07-06T14:22:36Z</time>
      </trkpt>
      <trkpt lat="43.63114" lon="-1.39456">
        <ele>9.27</ele>
        <time>2021-07-06T14:22:44Z</time>
      </trkpt>
      <trkpt lat="43.63119" lon="-1.39452">
        <ele>9.27</ele>
        <time>2021-07-06T14:22:46Z</time>
      </trkpt>
      <trkpt lat="43.6312" lon="-1.39426">
        <ele>8.31</ele>
        <time>2021-07-06T14:22:49Z</time>
      </trkpt>
      <trkpt lat="43.63123" lon="-1.39415">
        <ele>8.31</ele>
        <time>2021-07-06T14:22:50Z</time>
      </trkpt>
      <trkpt lat="43.63127" lon="-1.39408">
        <ele>8.79</ele>
        <time>2021-07-06T14:22:51Z</time>
      </trkpt>
      <trkpt lat="43.63131" lon="-1.39401">
        <ele>8.79</ele>
        <time>2021-07-06T14:22:52Z</time>
      </trkpt>
      <trkpt lat="43.63141" lon="-1.39399">
        <ele>8.31</ele>
        <time>2021-07-06T14:22:53Z</time>
      </trkpt>
      <trkpt lat="43.63147" lon="-1.39399">
        <ele>7.83</ele>
        <time>2021-07-06T14:22:54Z</time>
      </trkpt>
      <trkpt lat="43.63153" lon="-1.39398">
        <ele>7.83</ele>
        <time>2021-07-06T14:22:55Z</time>
      </trkpt>
      <trkpt lat="43.63161" lon="-1.39401">
        <ele>7.35</ele>
        <time>2021-07-06T14:22:56Z</time>
      </trkpt>
      <trkpt lat="43.63165" lon="-1.39407">
        <ele>7.35</ele>
        <time>2021-07-06T14:22:57Z</time>
      </trkpt>
      <trkpt lat="43.6317" lon="-1.39413">
        <ele>6.87</ele>
        <time>2021-07-06T14:22:58Z</time>
      </trkpt>
      <trkpt lat="43.63172" lon="-1.39421">
        <ele>6.87</ele>
        <time>2021-07-06T14:22:59Z</time>
      </trkpt>
      <trkpt lat="43.63174" lon="-1.39429">
        <ele>6.39</ele>
        <time>2021-07-06T14:23:00Z</time>
      </trkpt>
      <trkpt lat="43.63175" lon="-1.39438">
        <ele>6.87</ele>
        <time>2021-07-06T14:23:01Z</time>
      </trkpt>
      <trkpt lat="43.63174" lon="-1.39447">
        <ele>6.39</ele>
        <time>2021-07-06T14:23:02Z</time>
      </trkpt>
      <trkpt lat="43.6317" lon="-1.39455">
        <ele>6.39</ele>
        <time>2021-07-06T14:23:03Z</time>
      </trkpt>
      <trkpt lat="43.63165" lon="-1.39463">
        <ele>6.39</ele>
        <time>2021-07-06T14:23:04Z</time>
      </trkpt>
      <trkpt lat="43.63162" lon="-1.39466">
        <ele>6.39</ele>
        <time>2021-07-06T14:23:05Z</time>
      </trkpt>
      <trkpt lat="43.63151" lon="-1.3948">
        <ele>6.39</ele>
        <time>2021-07-06T14:23:06Z</time>
      </trkpt>
      <trkpt lat="43.6315" lon="-1.3949">
        <ele>6.39</ele>
        <time>2021-07-06T14:23:07Z</time>
      </trkpt>
      <trkpt lat="43.63149" lon="-1.39501">
        <ele>5.91</ele>
        <time>2021-07-06T14:23:08Z</time>
      </trkpt>
      <trkpt lat="43.63136" lon="-1.39639">
        <ele>3.02</ele>
        <time>2021-07-06T14:23:22Z</time>
      </trkpt>
      <trkpt lat="43.63132" lon="-1.39674">
        <ele>2.54</ele>
        <time>2021-07-06T14:23:30Z</time>
      </trkpt>
      <trkpt lat="43.63132" lon="-1.39674">
        <ele>2.54</ele>
        <time>2021-07-06T14:23:31Z</time>
      </trkpt>
      <trkpt lat="43.63141" lon="-1.39692">
        <ele>2.54</ele>
        <time>2021-07-06T14:23:33Z</time>
      </trkpt>
      <trkpt lat="43.63145" lon="-1.39697">
        <ele>2.54</ele>
        <time>2021-07-06T14:23:34Z</time>
      </trkpt>
      <trkpt lat="43.63145" lon="-1.39705">
        <ele>3.02</ele>
        <time>2021-07-06T14:23:35Z</time>
      </trkpt>
      <trkpt lat="43.63145" lon="-1.39714">
        <ele>3.02</ele>
        <time>2021-07-06T14:23:36Z</time>
      </trkpt>
      <trkpt lat="43.63142" lon="-1.39722">
        <ele>3.02</ele>
        <time>2021-07-06T14:23:37Z</time>
      </trkpt>
      <trkpt lat="43.63141" lon="-1.39726">
        <ele>3.02</ele>
        <time>2021-07-06T14:23:38Z</time>
      </trkpt>
      <trkpt lat="43.63132" lon="-1.39743">
        <ele>3.02</ele>
        <time>2021-07-06T14:23:39Z</time>
      </trkpt>
      <trkpt lat="43.63134" lon="-1.39753">
        <ele>3.02</ele>
        <time>2021-07-06T14:23:40Z</time>
      </trkpt>
      <trkpt lat="43.63135" lon="-1.39765">
        <ele>3.5</ele>
        <time>2021-07-06T14:23:41Z</time>
      </trkpt>
      <trkpt lat="43.63165" lon="-1.39911">
        <ele>4.46</ele>
        <time>2021-07-06T14:23:51Z</time>
      </trkpt>
      <trkpt lat="43.63186" lon="-1.40102">
        <ele>10.23</ele>
        <time>2021-07-06T14:24:01Z</time>
      </trkpt>
      <trkpt lat="43.63177" lon="-1.4021">
        <ele>13.6</ele>
        <time>2021-07-06T14:24:08Z</time>
      </trkpt>
      <trkpt lat="43.63177" lon="-1.40229">
        <ele>14.56</ele>
        <time>2021-07-06T14:24:09Z</time>
      </trkpt>
      <trkpt lat="43.63177" lon="-1.40247">
        <ele>15.52</ele>
        <time>2021-07-06T14:24:10Z</time>
      </trkpt>
      <trkpt lat="43.63181" lon="-1.40266">
        <ele>16.48</ele>
        <time>2021-07-06T14:24:11Z</time>
      </trkpt>
      <trkpt lat="43.63184" lon="-1.40285">
        <ele>17.44</ele>
        <time>2021-07-06T14:24:12Z</time>
      </trkpt>
      <trkpt lat="43.63188" lon="-1.40304">
        <ele>18.4</ele>
        <time>2021-07-06T14:24:13Z</time>
      </trkpt>
      <trkpt lat="43.63194" lon="-1.40322">
        <ele>18.4</ele>
        <time>2021-07-06T14:24:14Z</time>
      </trkpt>
      <trkpt lat="43.63201" lon="-1.40339">
        <ele>18.4</ele>
        <time>2021-07-06T14:24:15Z</time>
      </trkpt>
      <trkpt lat="43.63209" lon="-1.40357">
        <ele>18.88</ele>
        <time>2021-07-06T14:24:16Z</time>
      </trkpt>
      <trkpt lat="43.63298" lon="-1.40577">
        <ele>16.96</ele>
        <time>2021-07-06T14:24:28Z</time>
      </trkpt>
      <trkpt lat="43.6341" lon="-1.40903">
        <ele>20.32</ele>
        <time>2021-07-06T14:24:43Z</time>
      </trkpt>
      <trkpt lat="43.63502" lon="-1.41179">
        <ele>21.29</ele>
        <time>2021-07-06T14:24:57Z</time>
      </trkpt>
      <trkpt lat="43.63567" lon="-1.41415">
        <ele>16</ele>
        <time>2021-07-06T14:25:09Z</time>
      </trkpt>
      <trkpt lat="43.63605" lon="-1.41575">
        <ele>16.48</ele>
        <time>2021-07-06T14:25:19Z</time>
      </trkpt>
      <trkpt lat="43.63611" lon="-1.41599">
        <ele>16.96</ele>
        <time>2021-07-06T14:25:22Z</time>
      </trkpt>
      <trkpt lat="43.63612" lon="-1.41606">
        <ele>16.96</ele>
        <time>2021-07-06T14:25:23Z</time>
      </trkpt>
      <trkpt lat="43.63614" lon="-1.41613">
        <ele>16.96</ele>
        <time>2021-07-06T14:25:24Z</time>
      </trkpt>
      <trkpt lat="43.63615" lon="-1.41619">
        <ele>16.48</ele>
        <time>2021-07-06T14:25:25Z</time>
      </trkpt>
      <trkpt lat="43.63619" lon="-1.41618">
        <ele>16.48</ele>
        <time>2021-07-06T14:25:26Z</time>
      </trkpt>
      <trkpt lat="43.63627" lon="-1.41618">
        <ele>15.52</ele>
        <time>2021-07-06T14:25:27Z</time>
      </trkpt>
      <trkpt lat="43.63633" lon="-1.41622">
        <ele>15.04</ele>
        <time>2021-07-06T14:25:28Z</time>
      </trkpt>
      <trkpt lat="43.63639" lon="-1.41629">
        <ele>15.04</ele>
        <time>2021-07-06T14:25:29Z</time>
      </trkpt>
      <trkpt lat="43.63647" lon="-1.41625">
        <ele>15.04</ele>
        <time>2021-07-06T14:25:30Z</time>
      </trkpt>
      <trkpt lat="43.63657" lon="-1.41621">
        <ele>15.04</ele>
        <time>2021-07-06T14:25:31Z</time>
      </trkpt>
      <trkpt lat="43.63774" lon="-1.41573">
        <ele>16.48</ele>
        <time>2021-07-06T14:25:41Z</time>
      </trkpt>
      <trkpt lat="43.63854" lon="-1.41554">
        <ele>16.48</ele>
        <time>2021-07-06T14:25:47Z</time>
      </trkpt>
      <trkpt lat="43.63868" lon="-1.41549">
        <ele>15.04</ele>
        <time>2021-07-06T14:25:48Z</time>
      </trkpt>
      <trkpt lat="43.63882" lon="-1.41541">
        <ele>14.08</ele>
        <time>2021-07-06T14:25:49Z</time>
      </trkpt>
      <trkpt lat="43.64014" lon="-1.41468">
        <ele>6.87</ele>
        <time>2021-07-06T14:25:57Z</time>
      </trkpt>
      <trkpt lat="43.64152" lon="-1.41441">
        <ele>7.35</ele>
        <time>2021-07-06T14:26:07Z</time>
      </trkpt>
      <trkpt lat="43.64188" lon="-1.41434">
        <ele>7.83</ele>
        <time>2021-07-06T14:26:10Z</time>
      </trkpt>
      <trkpt lat="43.64198" lon="-1.41432">
        <ele>7.83</ele>
        <time>2021-07-06T14:26:11Z</time>
      </trkpt>
      <trkpt lat="43.64214" lon="-1.41413">
        <ele>7.35</ele>
        <time>2021-07-06T14:26:13Z</time>
      </trkpt>
      <trkpt lat="43.6422" lon="-1.4141">
        <ele>7.83</ele>
        <time>2021-07-06T14:26:14Z</time>
      </trkpt>
      <trkpt lat="43.64235" lon="-1.41421">
        <ele>6.87</ele>
        <time>2021-07-06T14:26:15Z</time>
      </trkpt>
      <trkpt lat="43.64243" lon="-1.41415">
        <ele>6.87</ele>
        <time>2021-07-06T14:26:16Z</time>
      </trkpt>
      <trkpt lat="43.64252" lon="-1.41408">
        <ele>6.87</ele>
        <time>2021-07-06T14:26:17Z</time>
      </trkpt>
      <trkpt lat="43.64261" lon="-1.414">
        <ele>6.39</ele>
        <time>2021-07-06T14:26:18Z</time>
      </trkpt>
      <trkpt lat="43.64387" lon="-1.41295">
        <ele>5.91</ele>
        <time>2021-07-06T14:26:28Z</time>
      </trkpt>
      <trkpt lat="43.64541" lon="-1.41117">
        <ele>6.87</ele>
        <time>2021-07-06T14:26:40Z</time>
      </trkpt>
      <trkpt lat="43.64713" lon="-1.40874">
        <ele>10.23</ele>
        <time>2021-07-06T14:26:54Z</time>
      </trkpt>
      <trkpt lat="43.64796" lon="-1.4078">
        <ele>8.31</ele>
        <time>2021-07-06T14:27:02Z</time>
      </trkpt>
      <trkpt lat="43.64822" lon="-1.40759">
        <ele>7.35</ele>
        <time>2021-07-06T14:27:06Z</time>
      </trkpt>
      <trkpt lat="43.64828" lon="-1.40756">
        <ele>7.35</ele>
        <time>2021-07-06T14:27:07Z</time>
      </trkpt>
      <trkpt lat="43.64838" lon="-1.4075">
        <ele>6.87</ele>
        <time>2021-07-06T14:27:09Z</time>
      </trkpt>
      <trkpt lat="43.64838" lon="-1.4075">
        <ele>6.87</ele>
        <time>2021-07-06T14:27:10Z</time>
      </trkpt>
      <trkpt lat="43.64846" lon="-1.40724">
        <ele>6.87</ele>
        <time>2021-07-06T14:27:11Z</time>
      </trkpt>
      <trkpt lat="43.64851" lon="-1.40724">
        <ele>6.87</ele>
        <time>2021-07-06T14:27:12Z</time>
      </trkpt>
      <trkpt lat="43.64856" lon="-1.40724">
        <ele>6.87</ele>
        <time>2021-07-06T14:27:13Z</time>
      </trkpt>
      <trkpt lat="43.6486" lon="-1.40724">
        <ele>6.87</ele>
        <time>2021-07-06T14:27:14Z</time>
      </trkpt>
      <trkpt lat="43.64862" lon="-1.40735">
        <ele>6.87</ele>
        <time>2021-07-06T14:27:15Z</time>
      </trkpt>
      <trkpt lat="43.64864" lon="-1.40741">
        <ele>6.87</ele>
        <time>2021-07-06T14:27:16Z</time>
      </trkpt>
      <trkpt lat="43.64863" lon="-1.40746">
        <ele>6.39</ele>
        <time>2021-07-06T14:27:17Z</time>
      </trkpt>
      <trkpt lat="43.64862" lon="-1.40752">
        <ele>6.39</ele>
        <time>2021-07-06T14:27:18Z</time>
      </trkpt>
      <trkpt lat="43.64854" lon="-1.40764">
        <ele>6.39</ele>
        <time>2021-07-06T14:27:19Z</time>
      </trkpt>
      <trkpt lat="43.64855" lon="-1.40774">
        <ele>6.39</ele>
        <time>2021-07-06T14:27:20Z</time>
      </trkpt>
      <trkpt lat="43.64843" lon="-1.40898">
        <ele>1.58</ele>
        <time>2021-07-06T14:27:29Z</time>
      </trkpt>
      <trkpt lat="43.64813" lon="-1.41067">
        <ele>-2.27</ele>
        <time>2021-07-06T14:27:40Z</time>
      </trkpt>
      <trkpt lat="43.64774" lon="-1.41229">
        <ele>-4.19</ele>
        <time>2021-07-06T14:27:53Z</time>
      </trkpt>
      <trkpt lat="43.64768" lon="-1.41245">
        <ele>-3.71</ele>
        <time>2021-07-06T14:27:55Z</time>
      </trkpt>
      <trkpt lat="43.64764" lon="-1.41256">
        <ele>-3.71</ele>
        <time>2021-07-06T14:27:56Z</time>
      </trkpt>
      <trkpt lat="43.64766" lon="-1.41261">
        <ele>-4.19</ele>
        <time>2021-07-06T14:27:57Z</time>
      </trkpt>
      <trkpt lat="43.64766" lon="-1.41261">
        <ele>-4.19</ele>
        <time>2021-07-06T14:27:58Z</time>
      </trkpt>
      <trkpt lat="43.64769" lon="-1.41263">
        <ele>-4.19</ele>
        <time>2021-07-06T14:27:59Z</time>
      </trkpt>
      <trkpt lat="43.64773" lon="-1.41266">
        <ele>-3.71</ele>
        <time>2021-07-06T14:28:00Z</time>
      </trkpt>
      <trkpt lat="43.64776" lon="-1.41276">
        <ele>-3.23</ele>
        <time>2021-07-06T14:28:01Z</time>
      </trkpt>
      <trkpt lat="43.64776" lon="-1.41282">
        <ele>-2.75</ele>
        <time>2021-07-06T14:28:02Z</time>
      </trkpt>
      <trkpt lat="43.64774" lon="-1.41287">
        <ele>-2.75</ele>
        <time>2021-07-06T14:28:03Z</time>
      </trkpt>
      <trkpt lat="43.64771" lon="-1.4129">
        <ele>-2.75</ele>
        <time>2021-07-06T14:28:04Z</time>
      </trkpt>
      <trkpt lat="43.64765" lon="-1.41293">
        <ele>-2.27</ele>
        <time>2021-07-06T14:28:05Z</time>
      </trkpt>
      <trkpt lat="43.64765" lon="-1.41293">
        <ele>-1.79</ele>
        <time>2021-07-06T14:28:06Z</time>
      </trkpt>
      <trkpt lat="43.6476" lon="-1.41294">
        <ele>-1.79</ele>
        <time>2021-07-06T14:28:07Z</time>
      </trkpt>
      <trkpt lat="43.64756" lon="-1.41292">
        <ele>-1.3</ele>
        <time>2021-07-06T14:28:08Z</time>
      </trkpt>
      <trkpt lat="43.64752" lon="-1.41288">
        <ele>-1.3</ele>
        <time>2021-07-06T14:28:09Z</time>
      </trkpt>
      <trkpt lat="43.6475" lon="-1.41282">
        <ele>-1.3</ele>
        <time>2021-07-06T14:28:10Z</time>
      </trkpt>
      <trkpt lat="43.6475" lon="-1.41275">
        <ele>-1.3</ele>
        <time>2021-07-06T14:28:11Z</time>
      </trkpt>
      <trkpt lat="43.6475" lon="-1.41268">
        <ele>-1.3</ele>
        <time>2021-07-06T14:28:12Z</time>
      </trkpt>
      <trkpt lat="43.64755" lon="-1.41263">
        <ele>-1.3</ele>
        <time>2021-07-06T14:28:13Z</time>
      </trkpt>
      <trkpt lat="43.6476" lon="-1.4126">
        <ele>-1.3</ele>
        <time>2021-07-06T14:28:14Z</time>
      </trkpt>
      <trkpt lat="43.64769" lon="-1.41263">
        <ele>-1.3</ele>
        <time>2021-07-06T14:28:15Z</time>
      </trkpt>
      <trkpt lat="43.64773" lon="-1.41266">
        <ele>-0.82</ele>
        <time>2021-07-06T14:28:16Z</time>
      </trkpt>
      <trkpt lat="43.64773" lon="-1.41266">
        <ele>-0.82</ele>
        <time>2021-07-06T14:28:17Z</time>
      </trkpt>
      <trkpt lat="43.64776" lon="-1.41281">
        <ele>-0.82</ele>
        <time>2021-07-06T14:28:18Z</time>
      </trkpt>
      <trkpt lat="43.64776" lon="-1.41281">
        <ele>-0.34</ele>
        <time>2021-07-06T14:28:19Z</time>
      </trkpt>
      <trkpt lat="43.64776" lon="-1.41284">
        <ele>-0.34</ele>
        <time>2021-07-06T14:28:20Z</time>
      </trkpt>
      <trkpt lat="43.64785" lon="-1.41297">
        <ele>0.14</ele>
        <time>2021-07-06T14:28:21Z</time>
      </trkpt>
      <trkpt lat="43.64791" lon="-1.41299">
        <ele>0.14</ele>
        <time>2021-07-06T14:28:22Z</time>
      </trkpt>
      <trkpt lat="43.64791" lon="-1.41299">
        <ele>0.14</ele>
        <time>2021-07-06T14:28:23Z</time>
      </trkpt>
      <trkpt lat="43.64797" lon="-1.41301">
        <ele>0.14</ele>
        <time>2021-07-06T14:28:24Z</time>
      </trkpt>
      <trkpt lat="43.64805" lon="-1.413">
        <ele>0.14</ele>
        <time>2021-07-06T14:28:25Z</time>
      </trkpt>
      <trkpt lat="43.64905" lon="-1.41293">
        <ele>-0.82</ele>
        <time>2021-07-06T14:28:35Z</time>
      </trkpt>
      <trkpt lat="43.65" lon="-1.41289">
        <ele>-2.27</ele>
        <time>2021-07-06T14:28:45Z</time>
      </trkpt>
      <trkpt lat="43.65013" lon="-1.41288">
        <ele>-2.75</ele>
        <time>2021-07-06T14:28:47Z</time>
      </trkpt>
      <trkpt lat="43.65018" lon="-1.41287">
        <ele>-3.23</ele>
        <time>2021-07-06T14:28:48Z</time>
      </trkpt>
      <trkpt lat="43.65023" lon="-1.41287">
        <ele>-3.23</ele>
        <time>2021-07-06T14:28:49Z</time>
      </trkpt>
      <trkpt lat="43.65029" lon="-1.41279">
        <ele>-3.71</ele>
        <time>2021-07-06T14:28:50Z</time>
      </trkpt>
      <trkpt lat="43.65031" lon="-1.41274">
        <ele>-3.71</ele>
        <time>2021-07-06T14:28:51Z</time>
      </trkpt>
      <trkpt lat="43.65036" lon="-1.4127">
        <ele>-3.71</ele>
        <time>2021-07-06T14:28:52Z</time>
      </trkpt>
      <trkpt lat="43.65042" lon="-1.41268">
        <ele>-4.19</ele>
        <time>2021-07-06T14:28:53Z</time>
      </trkpt>
      <trkpt lat="43.65046" lon="-1.41267">
        <ele>-4.19</ele>
        <time>2021-07-06T14:28:54Z</time>
      </trkpt>
      <trkpt lat="43.65051" lon="-1.41273">
        <ele>-3.71</ele>
        <time>2021-07-06T14:28:55Z</time>
      </trkpt>
      <trkpt lat="43.65054" lon="-1.41279">
        <ele>-3.71</ele>
        <time>2021-07-06T14:28:56Z</time>
      </trkpt>
      <trkpt lat="43.65058" lon="-1.41284">
        <ele>-3.23</ele>
        <time>2021-07-06T14:28:57Z</time>
      </trkpt>
      <trkpt lat="43.65068" lon="-1.41285">
        <ele>-2.75</ele>
        <time>2021-07-06T14:28:58Z</time>
      </trkpt>
      <trkpt lat="43.65075" lon="-1.41285">
        <ele>-3.23</ele>
        <time>2021-07-06T14:28:59Z</time>
      </trkpt>
      <trkpt lat="43.65176" lon="-1.41272">
        <ele>1.58</ele>
        <time>2021-07-06T14:29:10Z</time>
      </trkpt>
      <trkpt lat="43.65223" lon="-1.41253">
        <ele>2.06</ele>
        <time>2021-07-06T14:29:15Z</time>
      </trkpt>
      <trkpt lat="43.65232" lon="-1.41248">
        <ele>1.58</ele>
        <time>2021-07-06T14:29:16Z</time>
      </trkpt>
      <trkpt lat="43.65245" lon="-1.41239">
        <ele>1.1</ele>
        <time>2021-07-06T14:29:18Z</time>
      </trkpt>
      <trkpt lat="43.6526" lon="-1.41225">
        <ele>-0.34</ele>
        <time>2021-07-06T14:29:21Z</time>
      </trkpt>
      <trkpt lat="43.653" lon="-1.41171">
        <ele>-1.79</ele>
        <time>2021-07-06T14:29:30Z</time>
      </trkpt>
      <trkpt lat="43.65398" lon="-1.41019">
        <ele>-4.67</ele>
        <time>2021-07-06T14:29:44Z</time>
      </trkpt>
      <trkpt lat="43.65403" lon="-1.4101">
        <ele>-4.67</ele>
        <time>2021-07-06T14:29:45Z</time>
      </trkpt>
      <trkpt lat="43.65408" lon="-1.41003">
        <ele>-4.67</ele>
        <time>2021-07-06T14:29:46Z</time>
      </trkpt>
      <trkpt lat="43.65413" lon="-1.40996">
        <ele>-5.15</ele>
        <time>2021-07-06T14:29:47Z</time>
      </trkpt>
      <trkpt lat="43.65409" lon="-1.40976">
        <ele>-5.63</ele>
        <time>2021-07-06T14:29:49Z</time>
      </trkpt>
      <trkpt lat="43.65408" lon="-1.40964">
        <ele>-5.63</ele>
        <time>2021-07-06T14:29:50Z</time>
      </trkpt>
      <trkpt lat="43.65411" lon="-1.40958">
        <ele>-5.63</ele>
        <time>2021-07-06T14:29:51Z</time>
      </trkpt>
      <trkpt lat="43.65417" lon="-1.40952">
        <ele>-5.15</ele>
        <time>2021-07-06T14:29:52Z</time>
      </trkpt>
      <trkpt lat="43.65422" lon="-1.40951">
        <ele>-5.15</ele>
        <time>2021-07-06T14:29:53Z</time>
      </trkpt>
      <trkpt lat="43.65422" lon="-1.40951">
        <ele>-5.15</ele>
        <time>2021-07-06T14:29:54Z</time>
      </trkpt>
      <trkpt lat="43.65438" lon="-1.40952">
        <ele>-5.15</ele>
        <time>2021-07-06T14:29:55Z</time>
      </trkpt>
      <trkpt lat="43.65499" lon="-1.40861">
        <ele>-5.15</ele>
        <time>2021-07-06T14:30:05Z</time>
      </trkpt>
      <trkpt lat="43.65599" lon="-1.407">
        <ele>-7.55</ele>
        <time>2021-07-06T14:30:19Z</time>
      </trkpt>
      <trkpt lat="43.65663" lon="-1.40566">
        <ele>-6.59</ele>
        <time>2021-07-06T14:30:30Z</time>
      </trkpt>
      <trkpt lat="43.65734" lon="-1.40401">
        <ele>-5.63</ele>
        <time>2021-07-06T14:30:42Z</time>
      </trkpt>
      <trkpt lat="43.65762" lon="-1.40338">
        <ele>-4.67</ele>
        <time>2021-07-06T14:30:49Z</time>
      </trkpt>
      <trkpt lat="43.65767" lon="-1.40331">
        <ele>-5.15</ele>
        <time>2021-07-06T14:30:50Z</time>
      </trkpt>
      <trkpt lat="43.65772" lon="-1.40324">
        <ele>-5.15</ele>
        <time>2021-07-06T14:30:51Z</time>
      </trkpt>
      <trkpt lat="43.65784" lon="-1.40303">
        <ele>-5.63</ele>
        <time>2021-07-06T14:30:54Z</time>
      </trkpt>
      <trkpt lat="43.65792" lon="-1.40288">
        <ele>-5.63</ele>
        <time>2021-07-06T14:30:55Z</time>
      </trkpt>
      <trkpt lat="43.65792" lon="-1.40288">
        <ele>-5.63</ele>
        <time>2021-07-06T14:30:56Z</time>
      </trkpt>
      <trkpt lat="43.65797" lon="-1.40268">
        <ele>-5.15</ele>
        <time>2021-07-06T14:30:58Z</time>
      </trkpt>
      <trkpt lat="43.658" lon="-1.40257">
        <ele>-4.19</ele>
        <time>2021-07-06T14:30:59Z</time>
      </trkpt>
      <trkpt lat="43.65856" lon="-1.40121">
        <ele>-2.75</ele>
        <time>2021-07-06T14:31:11Z</time>
      </trkpt>
      <trkpt lat="43.65935" lon="-1.39988">
        <ele>-0.34</ele>
        <time>2021-07-06T14:31:22Z</time>
      </trkpt>
      <trkpt lat="43.65993" lon="-1.3992">
        <ele>-1.3</ele>
        <time>2021-07-06T14:31:29Z</time>
      </trkpt>
      <trkpt lat="43.6603" lon="-1.39897">
        <ele>-0.82</ele>
        <time>2021-07-06T14:31:32Z</time>
      </trkpt>
      <trkpt lat="43.6603" lon="-1.39897">
        <ele>-0.34</ele>
        <time>2021-07-06T14:31:33Z</time>
      </trkpt>
      <trkpt lat="43.66039" lon="-1.39893">
        <ele>-0.34</ele>
        <time>2021-07-06T14:31:34Z</time>
      </trkpt>
      <trkpt lat="43.6605" lon="-1.39891">
        <ele>0.14</ele>
        <time>2021-07-06T14:31:35Z</time>
      </trkpt>
      <trkpt lat="43.66061" lon="-1.3989">
        <ele>1.1</ele>
        <time>2021-07-06T14:31:36Z</time>
      </trkpt>
      <trkpt lat="43.66195" lon="-1.39861">
        <ele>2.06</ele>
        <time>2021-07-06T14:31:48Z</time>
      </trkpt>
      <trkpt lat="43.66242" lon="-1.39839">
        <ele>2.06</ele>
        <time>2021-07-06T14:31:54Z</time>
      </trkpt>
      <trkpt lat="43.66249" lon="-1.39834">
        <ele>2.54</ele>
        <time>2021-07-06T14:31:55Z</time>
      </trkpt>
      <trkpt lat="43.66257" lon="-1.39826">
        <ele>3.02</ele>
        <time>2021-07-06T14:31:56Z</time>
      </trkpt>
      <trkpt lat="43.66272" lon="-1.3981">
        <ele>3.5</ele>
        <time>2021-07-06T14:31:57Z</time>
      </trkpt>
      <trkpt lat="43.66277" lon="-1.398">
        <ele>4.46</ele>
        <time>2021-07-06T14:31:58Z</time>
      </trkpt>
      <trkpt lat="43.66277" lon="-1.398">
        <ele>5.42</ele>
        <time>2021-07-06T14:31:59Z</time>
      </trkpt>
      <trkpt lat="43.66283" lon="-1.39787">
        <ele>5.91</ele>
        <time>2021-07-06T14:32:00Z</time>
      </trkpt>
      <trkpt lat="43.66291" lon="-1.39762">
        <ele>5.91</ele>
        <time>2021-07-06T14:32:01Z</time>
      </trkpt>
      <trkpt lat="43.66291" lon="-1.39762">
        <ele>6.39</ele>
        <time>2021-07-06T14:32:02Z</time>
      </trkpt>
      <trkpt lat="43.66328" lon="-1.39579">
        <ele>9.27</ele>
        <time>2021-07-06T14:32:16Z</time>
      </trkpt>
      <trkpt lat="43.6633" lon="-1.39565">
        <ele>9.27</ele>
        <time>2021-07-06T14:32:17Z</time>
      </trkpt>
      <trkpt lat="43.66331" lon="-1.39551">
        <ele>9.75</ele>
        <time>2021-07-06T14:32:18Z</time>
      </trkpt>
      <trkpt lat="43.66334" lon="-1.39539">
        <ele>9.27</ele>
        <time>2021-07-06T14:32:19Z</time>
      </trkpt>
      <trkpt lat="43.66338" lon="-1.39528">
        <ele>9.75</ele>
        <time>2021-07-06T14:32:20Z</time>
      </trkpt>
      <trkpt lat="43.66342" lon="-1.39515">
        <ele>10.23</ele>
        <time>2021-07-06T14:32:21Z</time>
      </trkpt>
      <trkpt lat="43.66377" lon="-1.39432">
        <ele>13.12</ele>
        <time>2021-07-06T14:32:31Z</time>
      </trkpt>
      <trkpt lat="43.66384" lon="-1.39418">
        <ele>14.08</ele>
        <time>2021-07-06T14:32:34Z</time>
      </trkpt>
      <trkpt lat="43.66386" lon="-1.39412">
        <ele>14.08</ele>
        <time>2021-07-06T14:32:35Z</time>
      </trkpt>
      <trkpt lat="43.66398" lon="-1.39359">
        <ele>11.19</ele>
        <time>2021-07-06T14:32:46Z</time>
      </trkpt>
      <trkpt lat="43.66398" lon="-1.39359">
        <ele>11.19</ele>
        <time>2021-07-06T14:32:47Z</time>
      </trkpt>
      <trkpt lat="43.66395" lon="-1.39343">
        <ele>10.71</ele>
        <time>2021-07-06T14:32:48Z</time>
      </trkpt>
      <trkpt lat="43.66405" lon="-1.39333">
        <ele>10.71</ele>
        <time>2021-07-06T14:32:49Z</time>
      </trkpt>
      <trkpt lat="43.66427" lon="-1.3934">
        <ele>10.23</ele>
        <time>2021-07-06T14:32:59Z</time>
      </trkpt>
      <trkpt lat="43.66453" lon="-1.39333">
        <ele>10.71</ele>
        <time>2021-07-06T14:33:07Z</time>
      </trkpt>
      <trkpt lat="43.66512" lon="-1.39317">
        <ele>9.75</ele>
        <time>2021-07-06T14:33:18Z</time>
      </trkpt>
      <trkpt lat="43.66593" lon="-1.39269">
        <ele>7.35</ele>
        <time>2021-07-06T14:33:30Z</time>
      </trkpt>
      <trkpt lat="43.66602" lon="-1.39264">
        <ele>7.35</ele>
        <time>2021-07-06T14:33:31Z</time>
      </trkpt>
      <trkpt lat="43.66611" lon="-1.39259">
        <ele>6.87</ele>
        <time>2021-07-06T14:33:32Z</time>
      </trkpt>
      <trkpt lat="43.66619" lon="-1.39258">
        <ele>6.87</ele>
        <time>2021-07-06T14:33:33Z</time>
      </trkpt>
      <trkpt lat="43.66627" lon="-1.39257">
        <ele>6.87</ele>
        <time>2021-07-06T14:33:34Z</time>
      </trkpt>
      <trkpt lat="43.66635" lon="-1.39257">
        <ele>6.87</ele>
        <time>2021-07-06T14:33:35Z</time>
      </trkpt>
      <trkpt lat="43.66642" lon="-1.39256">
        <ele>6.87</ele>
        <time>2021-07-06T14:33:36Z</time>
      </trkpt>
      <trkpt lat="43.66649" lon="-1.39258">
        <ele>6.87</ele>
        <time>2021-07-06T14:33:37Z</time>
      </trkpt>
      <trkpt lat="43.66657" lon="-1.39261">
        <ele>7.35</ele>
        <time>2021-07-06T14:33:38Z</time>
      </trkpt>
      <trkpt lat="43.66741" lon="-1.39283">
        <ele>8.79</ele>
        <time>2021-07-06T14:33:49Z</time>
      </trkpt>
      <trkpt lat="43.66822" lon="-1.3929">
        <ele>8.31</ele>
        <time>2021-07-06T14:34:01Z</time>
      </trkpt>
      <trkpt lat="43.66833" lon="-1.39291">
        <ele>7.83</ele>
        <time>2021-07-06T14:34:03Z</time>
      </trkpt>
      <trkpt lat="43.66846" lon="-1.39289">
        <ele>8.31</ele>
        <time>2021-07-06T14:34:05Z</time>
      </trkpt>
      <trkpt lat="43.66855" lon="-1.39286">
        <ele>8.31</ele>
        <time>2021-07-06T14:34:06Z</time>
      </trkpt>
      <trkpt lat="43.66875" lon="-1.39295">
        <ele>8.79</ele>
        <time>2021-07-06T14:34:09Z</time>
      </trkpt>
      <trkpt lat="43.66883" lon="-1.39297">
        <ele>8.79</ele>
        <time>2021-07-06T14:34:10Z</time>
      </trkpt>
      <trkpt lat="43.66892" lon="-1.39299">
        <ele>8.79</ele>
        <time>2021-07-06T14:34:11Z</time>
      </trkpt>
      <trkpt lat="43.66901" lon="-1.39295">
        <ele>7.83</ele>
        <time>2021-07-06T14:34:12Z</time>
      </trkpt>
      <trkpt lat="43.66909" lon="-1.3929">
        <ele>7.83</ele>
        <time>2021-07-06T14:34:13Z</time>
      </trkpt>
      <trkpt lat="43.66979" lon="-1.39237">
        <ele>8.31</ele>
        <time>2021-07-06T14:34:23Z</time>
      </trkpt>
      <trkpt lat="43.6706" lon="-1.39154">
        <ele>5.42</ele>
        <time>2021-07-06T14:34:37Z</time>
      </trkpt>
      <trkpt lat="43.6706" lon="-1.39154">
        <ele>4.94</ele>
        <time>2021-07-06T14:34:38Z</time>
      </trkpt>
      <trkpt lat="43.67064" lon="-1.3915">
        <ele>4.94</ele>
        <time>2021-07-06T14:34:39Z</time>
      </trkpt>
      <trkpt lat="43.67067" lon="-1.39141">
        <ele>4.94</ele>
        <time>2021-07-06T14:34:40Z</time>
      </trkpt>
      <trkpt lat="43.67067" lon="-1.39134">
        <ele>4.94</ele>
        <time>2021-07-06T14:34:41Z</time>
      </trkpt>
      <trkpt lat="43.67068" lon="-1.39128">
        <ele>5.42</ele>
        <time>2021-07-06T14:34:42Z</time>
      </trkpt>
      <trkpt lat="43.67069" lon="-1.39121">
        <ele>5.42</ele>
        <time>2021-07-06T14:34:43Z</time>
      </trkpt>
      <trkpt lat="43.6707" lon="-1.39114">
        <ele>5.42</ele>
        <time>2021-07-06T14:34:44Z</time>
      </trkpt>
      <trkpt lat="43.67071" lon="-1.39108">
        <ele>5.91</ele>
        <time>2021-07-06T14:34:45Z</time>
      </trkpt>
      <trkpt lat="43.67072" lon="-1.39101">
        <ele>5.91</ele>
        <time>2021-07-06T14:34:46Z</time>
      </trkpt>
      <trkpt lat="43.67093" lon="-1.39029">
        <ele>6.87</ele>
        <time>2021-07-06T14:35:00Z</time>
      </trkpt>
      <trkpt lat="43.67104" lon="-1.39">
        <ele>6.39</ele>
        <time>2021-07-06T14:35:05Z</time>
      </trkpt>
      <trkpt lat="43.67107" lon="-1.38995">
        <ele>5.91</ele>
        <time>2021-07-06T14:35:06Z</time>
      </trkpt>
      <trkpt lat="43.67119" lon="-1.38962">
        <ele>5.91</ele>
        <time>2021-07-06T14:35:12Z</time>
      </trkpt>
      <trkpt lat="43.67122" lon="-1.38957">
        <ele>5.91</ele>
        <time>2021-07-06T14:35:13Z</time>
      </trkpt>
      <trkpt lat="43.67125" lon="-1.38952">
        <ele>6.39</ele>
        <time>2021-07-06T14:35:14Z</time>
      </trkpt>
      <trkpt lat="43.67128" lon="-1.38947">
        <ele>6.39</ele>
        <time>2021-07-06T14:35:15Z</time>
      </trkpt>
      <trkpt lat="43.67131" lon="-1.38943">
        <ele>6.87</ele>
        <time>2021-07-06T14:35:16Z</time>
      </trkpt>
    </trkseg>
  </trk>
</gpx>